Flight Track Log - Related Links

Times and Time Zones

All times are in EDT time to prevent confusion due to time zone crossing. See the DAL3796 flight status page for this flight to view local times or setup timezone preferences in your user account.

Time Position Orientation Groundspeed Altitude Reporting Facility
EDT Latitude Longitude Course Direction KTS MPH feet Rate Location/Type
Mon 08:39:11 PM 42.2014 -83.3722 223° Southwest 166 191 1,200  Level Cleveland Center
Mon 08:39:59 PM 42.1714 -83.4100 223° Southwest 205 236 2,500 1,748 Climbing Cleveland Center
Mon 08:40:54 PM 42.1497 -83.4689 244° Southwest 227 261 4,200 1,875 Climbing Cleveland Center
Mon 08:41:19 PM 42.1619 -83.5008 297° West 229 264 5,000 2,149 Climbing Cleveland Center
Mon 08:42:01 PM 42.1842 -83.5642 295° West 267 307 6,600 2,323 Climbing Cleveland Center
Mon 08:42:21 PM 42.1958 -83.5892 302° West 254 292 7,400 2,519 Climbing Cleveland Center
Mon 08:43:22 PM 42.2297 -83.6794 297° West 265 305 10,000 1,756 Climbing Cleveland Center
Mon 08:44:24 PM 42.2661 -83.7739 298° West 280 322 11,000 919 Climbing Cleveland Center
Mon 08:45:26 PM 42.3081 -83.8839 297° West 322 371 11,900 829 Climbing Cleveland Center
Mon 08:46:27 PM 42.3531 -84.0017 297° West 349 402 12,700 829 Climbing Cleveland Center
Mon 08:47:29 PM 42.3997 -84.1233 297° West 363 418 13,600 919 Climbing Cleveland Center
Mon 08:48:31 PM 42.4269 -84.2569 285° West 370 426 14,600 976 Climbing Cleveland Center
Mon 08:49:32 PM 42.4319 -84.3961 273° West 370 426 15,600 976 Climbing Cleveland Center
Mon 08:50:34 PM 42.4375 -84.5356 273° West 371 427 16,600 1,016 Climbing Cleveland Center
Mon 08:51:36 PM 42.4403 -84.6906 271° West 373 429 17,700 1,122 Climbing Cleveland Center
Mon 08:52:37 PM 42.4436 -84.8289 272° West 373 429 18,900 829 Climbing Cleveland Center
Mon 08:53:39 PM 42.4472 -84.9686 272° West 372 428 19,400 537 Climbing Cleveland Center
Mon 08:54:40 PM 42.4503 -85.1403 271° West 375 432 20,000 641 Climbing Cleveland Center
Mon 08:55:50 PM 42.4531 -85.2833 272° West 378 435 20,800 773 Climbing Chicago Center
Mon 08:56:52 PM 42.4558 -85.4253 272° West 379 436 21,700 823 Climbing Chicago Center
Mon 08:57:54 PM 42.4592 -85.5942 272° West 377 434 22,500 726 Climbing Chicago Center
Mon 08:58:56 PM 42.4611 -85.7347 271° West 377 434 23,200 581 Climbing Chicago Center
Mon 08:59:58 PM 42.4619 -85.8742 271° West 376 433 23,700 484 Climbing Chicago Center
Mon 09:01:00 PM 42.4647 -86.0161 272° West 375 432 24,200 484 Climbing Chicago Center
Mon 09:02:02 PM 42.4583 -86.1531 266° West 370 426 24,700 484 Climbing Chicago Center
Mon 09:03:04 PM 42.4414 -86.2919 261° West 367 422 25,200 532 Climbing Chicago Center
Mon 09:04:06 PM 42.4242 -86.4292 260° West 368 423 25,800 581 Climbing Chicago Center
Mon 09:05:08 PM 42.4033 -86.5925 260° West 368 423 26,400 484 Climbing Chicago Center
Mon 09:06:10 PM 42.3881 -86.7183 261° West 367 422 26,800 484 Climbing Chicago Center
Mon 09:07:12 PM 42.3692 -86.8644 260° West 367 422 27,400 532 Climbing Chicago Center
Mon 09:08:14 PM 42.3508 -87.0139 261° West 366 421 27,900 484 Climbing Chicago Center
Mon 09:09:16 PM 42.3322 -87.1422 259° West 353 406 28,400 484 Climbing Chicago Center
Mon 09:10:18 PM 42.3139 -87.2783 260° West 362 417 28,900 484 Climbing Chicago Center
Mon 09:11:20 PM 42.2969 -87.4106 260° West 361 415 29,400 484 Climbing Chicago Center
Mon 09:12:22 PM 42.2786 -87.5428 259° West 361 415 29,900 488 Climbing Chicago Center
Mon 09:13:23 PM 42.2597 -87.6742 259° West 360 414 30,400 537 Climbing Chicago Center
Mon 09:14:25 PM 42.2381 -87.8317 260° West 359 413 31,000 532 Climbing Chicago Center
Mon 09:15:27 PM 42.2200 -87.9586 259° West 350 403 31,500 484 Climbing Chicago Center
Mon 09:16:29 PM 42.1983 -88.0864 257° West 350 403 32,000 242 Climbing Chicago Center
Mon 09:17:31 PM 42.1747 -88.2133 256° West 350 403 32,000  Level Chicago Center
Mon 09:18:33 PM 42.1522 -88.3411 257° West 352 405 32,000  Level Chicago Center
Mon 09:19:35 PM 42.1242 -88.5003 257° West 359 413 32,000  Level Chicago Center
Mon 09:20:37 PM 42.1003 -88.6336 256° West 364 419 32,000  Level Chicago Center
Mon 09:21:39 PM 42.0764 -88.7658 256° West 366 421 32,000 -484 Level Chicago Center
Mon 09:22:41 PM 42.0625 -88.9075 263° West 379 436 31,000 -968 Descending Chicago Center
Mon 09:23:43 PM 42.0492 -89.0550 263° West 390 449 30,000 -484 Descending Chicago Center
Mon 09:24:45 PM 42.0350 -89.2050 263° West 399 459 30,000  Level Chicago Center
Mon 09:25:46 PM 42.0183 -89.3808 263° West 398 458 30,000  Level Chicago Center
Mon 09:26:48 PM 42.0044 -89.5250 263° West 392 451 30,000  Level Chicago Center
Mon 09:27:50 PM 41.9911 -89.6664 263° West 386 444 30,000  Level Chicago Center
Mon 09:28:52 PM 41.9767 -89.8103 262° West 388 447 30,000  Level Chicago Center
Mon 09:29:54 PM 41.9636 -89.9597 263° West 388 447 30,000  Level Chicago Center
Mon 09:30:56 PM 41.9486 -90.1014 262° West 389 448 30,000  Level Chicago Center
Mon 09:31:58 PM 41.9358 -90.2406 263° West 382 440 30,000  Level Chicago Center
Mon 09:32:59 PM 41.9200 -90.3828 262° West 383 441 30,000  Level Chicago Center
Mon 09:34:01 PM 41.9036 -90.5503 263° West 382 440 30,000  Level Chicago Center
Mon 09:35:03 PM 41.8875 -90.6942 261° West 391 450 30,000  Level Chicago Center
Mon 09:36:05 PM 41.8722 -90.8339 262° West 386 444 30,000  Level Chicago Center
Mon 09:37:07 PM 41.8575 -90.9742 262° West 386 444 30,000  Level Chicago Center
Mon 09:38:08 PM 41.8419 -91.1144 262° West 384 442 30,000  Level Chicago Center
Mon 09:39:10 PM 41.8261 -91.2569 262° West 385 443 30,000  Level Chicago Center
Mon 09:40:12 PM 41.8072 -91.4264 262° West 385 443 30,000 -339 Level Chicago Center
Mon 09:41:14 PM 41.7911 -91.5664 261° West 385 443 29,300 -968 Descending Chicago Center
Mon 09:42:16 PM 41.7742 -91.7169 261° West 404 465 28,000 -1,122 Descending Chicago Center
Mon 09:43:17 PM 41.7575 -91.8672 262° West 406 467 27,000 -1,415 Descending Chicago Center
Mon 09:44:19 PM 41.7397 -92.0181 261° West 410 472 25,100 -1,887 Descending Chicago Center
Mon 09:45:21 PM 41.7217 -92.1736 261° West 421 484 23,100 -2,129 Descending Chicago Center
Mon 09:46:23 PM 41.6994 -92.3533 261° West 414 476 20,700 -2,146 Descending Chicago Center
Mon 09:47:24 PM 41.6819 -92.5000 261° West 406 467 18,700 -2,049 Descending Chicago Center
Mon 09:48:26 PM 41.6647 -92.6422 261° West 398 458 16,500 -2,187 Descending Chicago Center
Mon 09:49:11 PM 41.6442 -92.7575 257° West 388 447 14,800 -2,243 Descending Minneapolis Center
Mon 09:50:13 PM 41.6189 -92.8883 256° West 375 432 12,500 -2,081 Descending Minneapolis Center
Mon 09:51:15 PM 41.5947 -93.0119 255° West 358 412 10,500 -1,452 Descending Minneapolis Center
Mon 09:52:17 PM 41.5731 -93.1161 254° West 276 318 9,500 -1,326 Descending Minneapolis Center
Mon 09:52:50 PM 41.5667 -93.1692 261° West 261 300 8,400 -1,770 Descending Minneapolis Center
Mon 09:53:18 PM 41.5533 -93.2214 251° West 270 311 7,700 -1,600 Descending Minneapolis Center
Mon 09:53:50 PM 41.5494 -93.2642 263° West 263 303 6,800 -1,548 Descending Minneapolis Center
Mon 09:54:20 PM 41.5350 -93.3139 249° West 263 303 6,100 -1,574 Descending Minneapolis Center
Mon 09:54:51 PM 41.5322 -93.3561 265° West 258 297 5,200 -1,742 Descending Minneapolis Center
Mon 09:55:22 PM 41.5150 -93.4139 248° West 261 300 4,300 -1,574 Descending Minneapolis Center
Mon 09:55:52 PM 41.5147 -93.4508 269° West 259 298 3,600 -1,452 Descending Minneapolis Center
Mon 09:56:24 PM 41.5031 -93.5078 255° West 260 299 2,800 -1,000 Descending Minneapolis Center
Mon 09:56:52 PM 41.5056 -93.5372 276° West 230 265 2,600 -492 Descending Minneapolis Center
Mon 09:57:25 PM 41.4969 -93.5825 256° West 201 231 2,300 -787 Descending Minneapolis Center
Mon 09:57:53 PM 41.5064 -93.5981 309° West 144 166 1,800 -871 Descending Minneapolis Center
Mon 09:58:27 PM 41.5158 -93.6311 291° West 142 163 1,400 -568 Descending Minneapolis Center
Mon 09:59:28 PM 41.5383 -93.6622 314° West 115 132 900 -244 Descending Minneapolis Center
Mon 10:00:30 PM 41.5375 -93.6578 104° East 59 68 900  Level Minneapolis Center
Mon 10:01:32 PM 41.5356 -93.6508 111° Southeast 23 26 900  Level Minneapolis Center
Mon 10:02:33 PM 41.5344 -93.6483 121° Southeast 15 17 900  Level Minneapolis Center
Mon 10:03:35 PM 41.5328 -93.6503 221° Southwest 12 14 900  Level Minneapolis Center

Login

Don't have an account? Register now (free) for customized features, flight alerts, and more!